Time;durP1;ratioP1;P1;durP2;ratioP2;P2;SDS_P1;SDS_P2;PMS_P1;PMS_P2;Temp;Humidity;BMP_temperature;BMP_pressure;BME280_temperature;BME280_humidity;BME280_pressure;Samples;Min_cycle;Max_cycle;Signal;HPM_P1;HPM_P2
2021/12/20 00:01:33;;;;;;;5.60;3.60;;;;;;;3.85;94.92;100078.44;6749605;26;34335;-65
2021/12/20 00:04:36;;;;;;;5.15;3.30;;;;;;;3.82;95.07;100074.28;6749536;26;34304;-66
2021/12/20 00:07:39;;;;;;;5.62;3.12;;;;;;;3.80;95.47;100078.00;6729375;26;34588;-64
2021/12/20 00:10:42;;;;;;;5.45;2.85;;;;;;;3.79;96.42;100065.81;6749160;26;34281;-64
2021/12/20 00:13:44;;;;;;;4.35;2.92;;;;;;;3.76;96.89;100060.84;6749141;26;34322;-65
2021/12/20 00:16:47;;;;;;;4.80;2.40;;;;;;;3.84;96.41;100047.91;6749065;26;34708;-65
2021/12/20 00:19:50;;;;;;;4.80;3.17;;;;;;;3.93;95.34;100037.44;6729250;26;34177;-64
2021/12/20 00:22:52;;;;;;;3.80;2.78;;;;;;;3.89;96.37;100029.97;6749381;26;34390;-64
2021/12/20 00:25:56;;;;;;;4.68;3.22;;;;;;;3.79;98.23;100048.28;6749060;26;34243;-65
2021/12/20 00:28:59;;;;;;;4.90;2.97;;;;;;;3.68;100.00;100073.81;6748920;26;34686;-65
2021/12/20 00:32:02;;;;;;;4.68;3.25;;;;;;;3.61;100.00;100107.59;6729151;26;34497;-64
2021/12/20 00:35:06;;;;;;;5.85;3.33;;;;;;;3.56;100.00;100127.28;6748744;26;34747;-64
2021/12/20 00:41:31;;;;;;;5.53;3.35;;;;;;;3.45;100.00;100130.81;6749241;26;34259;-65
2021/12/20 00:44:36;;;;;;;5.30;3.40;;;;;;;3.43;100.00;100148.47;6748776;26;34946;-65
2021/12/20 00:47:41;;;;;;;5.30;3.30;;;;;;;3.40;100.00;100146.09;6748987;26;34886;-65
2021/12/20 00:50:44;;;;;;;5.55;3.15;;;;;;;3.56;100.00;100162.22;6729159;26;34204;-65
2021/12/20 00:53:47;;;;;;;7.25;3.70;;;;;;;3.74;99.86;100157.22;6749412;26;34220;-64
2021/12/20 00:56:50;;;;;;;7.25;3.40;;;;;;;3.79;99.70;100152.41;6749349;26;34492;-65
2021/12/20 00:59:53;;;;;;;5.28;2.83;;;;;;;3.78;99.97;100156.81;6749316;26;35643;-66
2021/12/20 01:02:56;;;;;;;4.12;3.10;;;;;;;3.73;100.00;100145.06;6728910;26;34282;-65
2021/12/20 01:06:01;;;;;;;4.93;3.22;;;;;;;3.59;100.00;100140.12;6748907;26;34883;-66
2021/12/20 01:09:04;;;;;;;4.10;2.90;;;;;;;3.53;100.00;100159.88;6749203;26;34918;-65
2021/12/20 01:12:14;;;;;;;5.32;3.10;;;;;;;3.43;100.00;100135.37;6749283;26;34935;-66
2021/12/20 01:15:21;;;;;;;4.32;2.85;;;;;;;3.42;100.00;100157.31;6749252;26;34194;-67
2021/12/20 01:18:24;;;;;;;4.70;2.97;;;;;;;3.37;100.00;100149.81;6748985;26;34360;-67
2021/12/20 01:21:27;;;;;;;5.28;3.22;;;;;;;3.43;100.00;100111.78;6748739;26;34275;-66
2021/12/20 01:24:30;;;;;;;3.95;2.35;;;;;;;3.46;100.00;100163.94;6749278;26;34857;-66
2021/12/20 01:27:32;;;;;;;4.18;2.33;;;;;;;3.49;100.00;100156.66;6748763;26;34909;-66
2021/12/20 01:30:37;;;;;;;4.20;2.45;;;;;;;3.52;100.00;100162.63;6748651;26;34298;-65
2021/12/20 01:33:40;;;;;;;4.20;2.17;;;;;;;3.54;100.00;100168.53;6748789;26;34908;-65
2021/12/20 01:36:43;;;;;;;2.90;1.77;;;;;;;3.56;99.15;100170.09;6748827;26;34224;-65
2021/12/20 01:39:45;;;;;;;2.17;1.62;;;;;;;3.53;99.72;100173.00;6748860;26;36092;-64
2021/12/20 01:42:52;;;;;;;3.67;1.85;;;;;;;3.57;97.70;100174.38;6748680;26;34287;-65
2021/12/20 01:45:55;;;;;;;4.53;2.22;;;;;;;3.58;96.25;100181.31;6748728;26;34269;-65
2021/12/20 01:48:59;;;;;;;2.47;1.37;;;;;;;3.57;96.77;100186.66;6748799;26;34426;-65
2021/12/20 01:52:11;;;;;;;2.22;1.65;;;;;;;3.57;94.57;100174.38;6748612;26;34346;-66
2021/12/20 01:55:16;;;;;;;1.85;1.35;;;;;;;3.54;94.21;100186.91;6748843;26;34437;-65
2021/12/20 01:58:19;;;;;;;2.50;1.45;;;;;;;3.60;93.46;100207.38;6748764;26;34619;-65
2021/12/20 02:01:23;;;;;;;3.30;1.87;;;;;;;3.59;94.48;100208.34;6748753;26;35551;-66
2021/12/20 02:04:27;;;;;;;3.37;1.80;;;;;;;3.48;95.74;100209.25;6748892;26;34333;-65
2021/12/20 02:07:48;;;;;;;3.00;1.90;;;;;;;3.38;97.35;100216.22;6748988;26;33877;-65
2021/12/20 02:10:55;;;;;;;3.97;2.45;;;;;;;3.21;99.00;100216.75;6749115;26;34320;-64
2021/12/20 02:13:58;;;;;;;3.72;2.25;;;;;;;3.10;100.00;100216.81;6748761;26;34290;-64
2021/12/20 02:17:01;;;;;;;3.10;2.10;;;;;;;3.03;100.00;100195.47;6748748;26;34637;-65
2021/12/20 02:20:04;;;;;;;4.07;2.30;;;;;;;2.96;100.00;100208.25;6748617;26;34935;-66
2021/12/20 02:23:07;;;;;;;3.33;2.20;;;;;;;2.95;100.00;100211.81;6748372;26;34301;-65
2021/12/20 02:26:16;;;;;;;4.28;2.60;;;;;;;3.00;100.00;100221.94;6748659;26;35493;-65
2021/12/20 02:29:26;;;;;;;4.62;2.90;;;;;;;3.08;100.00;100226.56;6748599;26;35574;-64
2021/12/20 02:39:21;;;;;;;4.00;2.85;;;;;;;3.10;100.00;100219.41;6748679;26;34893;-65
2021/12/20 02:42:30;;;;;;;4.65;2.85;;;;;;;3.02;100.00;100228.72;6729017;26;35536;-64
2021/12/20 02:45:36;;;;;;;3.55;2.28;;;;;;;3.00;100.00;100221.94;6728733;26;34903;-65
2021/12/20 02:48:39;;;;;;;4.65;2.33;;;;;;;2.92;100.00;100219.94;6728817;26;34622;-65
2021/12/20 02:51:43;;;;;;;3.33;2.22;;;;;;;2.85;100.00;100225.78;6748493;26;34864;-65
2021/12/20 02:54:52;;;;;;;4.55;2.10;;;;;;;2.76;100.00;100235.19;6748474;26;35487;-65
2021/12/20 02:57:55;;;;;;;4.00;2.00;;;;;;;2.72;100.00;100238.19;6748407;26;34928;-65
2021/12/20 03:00:58;;;;;;;3.25;1.70;;;;;;;2.67;100.00;100235.09;6728592;26;35481;-65
2021/12/20 03:04:01;;;;;;;4.37;1.67;;;;;;;2.58;100.00;100229.63;6748398;26;34947;-65
2021/12/20 03:07:10;;;;;;;6.40;1.83;;;;;;;2.52;100.00;100234.50;6748419;26;35538;-65
2021/12/20 03:10:14;;;;;;;2.50;1.60;;;;;;;2.48;100.00;100235.69;6748463;26;34348;-65
2021/12/20 03:13:17;;;;;;;4.35;2.00;;;;;;;2.44;100.00;100240.34;6748220;26;34385;-65
2021/12/20 03:16:20;;;;;;;2.95;1.73;;;;;;;2.30;100.00;100252.84;6748254;26;34262;-65
2021/12/20 03:19:23;;;;;;;4.82;2.10;;;;;;;2.21;100.00;100277.09;6748597;26;34204;-65
2021/12/20 03:22:26;;;;;;;3.00;2.08;;;;;;;2.11;100.00;100288.28;6748162;26;35492;-64
2021/12/20 03:25:28;;;;;;;2.55;1.80;;;;;;;2.05;100.00;100298.37;6748091;26;34197;-64
2021/12/20 03:28:31;;;;;;;2.53;2.00;;;;;;;2.02;100.00;100302.06;6748526;26;34799;-64
2021/12/20 03:31:34;;;;;;;2.60;1.90;;;;;;;1.91;100.00;100314.25;6748042;26;34967;-64
2021/12/20 03:34:36;;;;;;;2.72;1.87;;;;;;;1.79;100.00;100305.56;6745449;26;34639;-64
2021/12/20 03:37:39;;;;;;;2.17;1.90;;;;;;;1.72;100.00;100302.56;6732883;26;34333;-64
2021/12/20 03:40:42;;;;;;;2.37;1.70;;;;;;;1.61;100.00;100309.50;6747895;26;35552;-65
2021/12/20 03:43:45;;;;;;;2.53;1.85;;;;;;;1.64;100.00;100304.06;6727971;26;34877;-65
2021/12/20 03:46:48;;;;;;;4.03;1.80;;;;;;;1.65;100.00;100308.34;6747990;26;34182;-64
2021/12/20 03:49:50;;;;;;;3.05;2.00;;;;;;;1.62;100.00;100298.94;6747978;26;34831;-65
2021/12/20 03:52:53;;;;;;;1.95;1.42;;;;;;;1.61;100.00;100307.72;6747968;26;34455;-64
2021/12/20 03:55:56;;;;;;;2.70;1.30;;;;;;;1.62;100.00;100319.88;6747930;26;34129;-64
2021/12/20 03:58:59;;;;;;;3.15;1.40;;;;;;;1.51;100.00;100316.34;6747959;26;34263;-64
2021/12/20 04:02:05;;;;;;;1.92;1.40;;;;;;;1.49;100.00;100326.09;6747894;26;35484;-66
2021/12/20 04:05:09;;;;;;;1.75;1.40;;;;;;;1.53;100.00;100328.37;6747525;26;35586;-64
2021/12/20 04:08:12;;;;;;;3.25;1.75;;;;;;;1.49;100.00;100341.78;6748041;26;34368;-64
2021/12/20 04:11:15;;;;;;;3.10;1.58;;;;;;;1.43;100.00;100337.00;6749157;26;34881;-65
2021/12/20 04:14:18;;;;;;;3.72;1.83;;;;;;;1.45;100.00;100337.75;6748983;26;34903;-65
2021/12/20 04:17:21;;;;;;;2.28;1.67;;;;;;;1.35;100.00;100349.78;6749356;26;34274;-65
2021/12/20 04:20:23;;;;;;;3.45;1.98;;;;;;;1.31;100.00;100349.16;6729287;26;34335;-65
2021/12/20 04:23:26;;;;;;;2.30;1.75;;;;;;;1.30;100.00;100356.19;6749111;26;34248;-65
2021/12/20 04:26:29;;;;;;;3.17;2.05;;;;;;;1.24;100.00;100356.63;6749215;26;34100;-65
2021/12/20 04:29:31;;;;;;;2.62;1.83;;;;;;;1.15;100.00;100353.81;6749478;26;34918;-65
2021/12/20 04:32:34;;;;;;;2.97;1.98;;;;;;;1.09;100.00;100360.31;6749515;26;35606;-65
2021/12/20 04:35:37;;;;;;;3.72;2.37;;;;;;;1.05;100.00;100371.09;6748869;26;34693;-64
2021/12/20 04:38:40;;;;;;;3.60;2.60;;;;;;;1.11;100.00;100374.12;6729315;26;34280;-65
2021/12/20 04:41:43;;;;;;;3.00;2.15;;;;;;;1.03;100.00;100379.03;6748883;26;34295;-65
2021/12/20 04:44:46;;;;;;;3.67;2.40;;;;;;;0.99;100.00;100385.41;6748933;26;35511;-65
2021/12/20 04:47:49;;;;;;;8.45;2.20;;;;;;;0.92;100.00;100388.56;6749633;26;34697;-65
2021/12/20 04:50:51;;;;;;;3.72;2.28;;;;;;;0.91;100.00;100392.13;6749294;26;34935;-65
2021/12/20 04:53:54;;;;;;;5.05;3.83;;;;;;;0.86;100.00;100393.28;6749296;26;34295;-65
2021/12/20 04:56:56;;;;;;;5.22;2.50;;;;;;;0.75;100.00;100392.31;6748945;26;34365;-65
2021/12/20 04:59:59;;;;;;;3.55;2.17;;;;;;;0.88;100.00;100391.38;6749025;26;34306;-65
2021/12/20 05:03:03;;;;;;;5.75;2.53;;;;;;;0.90;100.00;100398.28;6749029;26;34945;-64
2021/12/20 05:06:07;;;;;;;3.75;2.42;;;;;;;0.80;100.00;100398.91;6748946;26;34855;-66
2021/12/20 05:09:09;;;;;;;5.72;2.75;;;;;;;0.78;100.00;100405.16;6748789;26;35051;-66
2021/12/20 05:12:14;;;;;;;3.87;2.65;;;;;;;0.71;100.00;100402.16;6748779;26;34354;-66
2021/12/20 05:15:17;;;;;;;3.78;2.90;;;;;;;0.71;100.00;100403.94;6748834;26;34875;-66
2021/12/20 05:18:20;;;;;;;5.35;2.70;;;;;;;0.73;100.00;100405.47;6748649;26;34669;-65
2021/12/20 05:21:22;;;;;;;6.22;3.00;;;;;;;0.65;100.00;100410.41;6748136;26;34277;-65
2021/12/20 05:24:25;;;;;;;4.60;2.20;;;;;;;0.67;100.00;100405.91;6748574;26;35062;-65
2021/12/20 05:27:28;;;;;;;4.28;2.42;;;;;;;0.64;100.00;100402.66;6749105;26;34895;-65
2021/12/20 05:30:33;;;;;;;8.20;2.33;;;;;;;0.64;100.00;100418.31;6748765;26;34272;-65
2021/12/20 05:33:37;;;;;;;4.18;2.45;;;;;;;0.62;100.00;100423.66;6748942;26;35631;-65
2021/12/20 05:36:42;;;;;;;5.03;2.40;;;;;;;0.71;100.00;100427.44;6748501;26;34328;-65
2021/12/20 05:39:45;;;;;;;5.30;2.58;;;;;;;0.66;100.00;100424.28;6748822;26;34889;-65
2021/12/20 05:42:50;;;;;;;4.12;2.30;;;;;;;0.67;100.00;100420.75;6748519;26;34308;-64
2021/12/20 05:45:52;;;;;;;4.50;2.40;;;;;;;0.62;100.00;100430.66;6728856;26;34342;-62
2021/12/20 05:48:55;;;;;;;6.70;2.53;;;;;;;0.62;100.00;100423.66;6748717;26;34336;-62
2021/12/20 05:52:03;;;;;;;12.85;3.50;;;;;;;0.68;99.77;100425.84;6748664;26;34906;-62
2021/12/20 05:55:07;;;;;;;5.10;2.67;;;;;;;0.78;99.42;100432.09;6748603;26;34242;-65
2021/12/20 05:58:10;;;;;;;4.62;2.20;;;;;;;0.58;99.16;100424.78;6748607;26;35637;-65
2021/12/20 06:01:13;;;;;;;4.25;2.10;;;;;;;0.55;98.66;100426.78;6748707;26;34353;-65
2021/12/20 06:04:16;;;;;;;4.37;1.92;;;;;;;0.59;97.23;100426.47;6748524;26;34309;-64
2021/12/20 06:07:20;;;;;;;6.37;2.00;;;;;;;0.67;95.17;100439.84;6748520;26;34518;-65
2021/12/20 06:10:23;;;;;;;3.72;2.05;;;;;;;0.74;93.28;100450.69;6748516;26;34991;-65
2021/12/20 06:13:25;;;;;;;6.03;2.10;;;;;;;0.74;92.93;100456.75;6748837;26;34884;-65
2021/12/20 06:16:28;;;;;;;4.68;2.25;;;;;;;0.68;92.46;100456.31;6748845;26;34963;-65
2021/12/20 06:19:31;;;;;;;6.20;1.87;;;;;;;0.68;91.63;100454.56;6748484;26;34671;-65
2021/12/20 06:22:34;;;;;;;4.75;2.10;;;;;;;0.68;91.08;100457.16;6729152;26;34653;-65
2021/12/20 06:25:37;;;;;;;4.40;2.10;;;;;;;0.70;90.72;100459.69;6748377;26;34308;-65
2021/12/20 06:28:39;;;;;;;4.78;2.30;;;;;;;0.59;90.85;100467.37;6748433;26;34640;-65
2021/12/20 06:31:42;;;;;;;3.20;2.15;;;;;;;0.71;88.87;100471.81;6748426;26;34462;-66
2021/12/20 06:34:45;;;;;;;5.90;2.00;;;;;;;0.73;87.29;100477.75;6747539;26;35582;-65
2021/12/20 06:37:58;;;;;;;3.42;1.62;;;;;;;0.84;86.63;100476.09;6747920;26;34254;-65
2021/12/20 06:41:01;;;;;;;3.35;1.77;;;;;;;0.96;83.22;100490.12;6747898;26;34418;-65
2021/12/20 06:44:04;;;;;;;4.03;1.90;;;;;;;0.96;82.75;100502.34;6748623;26;35455;-64
2021/12/20 06:47:07;;;;;;;3.25;1.55;;;;;;;1.02;81.37;100501.91;6748442;26;35543;-65
2021/12/20 06:50:30;;;;;;;4.30;1.70;;;;;;;1.02;81.18;100492.28;6747789;26;34968;-64
2021/12/20 06:53:33;;;;;;;4.05;1.40;;;;;;;1.00;80.78;100496.78;6748626;26;35033;-65
2021/12/20 06:56:36;;;;;;;5.65;1.50;;;;;;;1.00;80.22;100503.78;6748008;26;34305;-64
2021/12/20 06:59:39;;;;;;;3.72;1.73;;;;;;;1.06;78.82;100508.59;6748060;26;34821;-64
2021/12/20 07:02:41;;;;;;;4.12;1.30;;;;;;;1.01;79.27;100510.69;6748003;26;34425;-64
2021/12/20 07:05:45;;;;;;;8.40;1.58;;;;;;;1.13;78.42;100494.16;6748058;26;35028;-66
2021/12/20 07:08:47;;;;;;;6.82;1.50;;;;;;;1.16;78.09;100493.97;6747990;26;34267;-65
2021/12/20 07:11:51;;;;;;;6.78;1.95;;;;;;;1.12;77.72;100506.41;6748144;26;34913;-64
2021/12/20 07:14:53;;;;;;;7.55;1.30;;;;;;;1.14;78.89;100514.13;6747581;26;35036;-65
2021/12/20 07:17:56;;;;;;;3.30;1.50;;;;;;;1.15;79.11;100515.81;6728098;26;34916;-66
2021/12/20 07:20:58;;;;;;;5.05;1.80;;;;;;;1.14;79.10;100511.53;6747743;26;34243;-65
2021/12/20 07:24:01;;;;;;;3.50;1.58;;;;;;;1.08;79.77;100511.94;6747410;26;34465;-65
2021/12/20 07:27:07;;;;;;;5.47;1.75;;;;;;;1.04;80.38;100513.94;6747828;26;34267;-64
2021/12/20 07:30:10;;;;;;;5.30;1.77;;;;;;;1.09;79.58;100508.37;6747948;26;34277;-65
2021/12/20 07:33:15;;;;;;;4.50;1.70;;;;;;;1.08;79.12;100504.94;6747147;26;35569;-65
2021/12/20 07:36:20;;;;;;;3.83;1.80;;;;;;;1.12;78.54;100509.00;6747533;26;34893;-65
2021/12/20 07:39:23;;;;;;;4.80;1.95;;;;;;;1.26;77.89;100502.81;6747819;26;34219;-65
2021/12/20 07:42:31;;;;;;;4.35;1.60;;;;;;;1.38;77.58;100514.22;6747170;26;34905;-65
2021/12/20 07:45:33;;;;;;;4.60;1.75;;;;;;;1.33;78.79;100511.09;6749453;26;34923;-65
2021/12/20 07:48:36;;;;;;;2.67;1.73;;;;;;;1.25;79.92;100520.31;6749143;26;34705;-66
2021/12/20 07:51:39;;;;;;;3.53;1.65;;;;;;;1.28;80.34;100521.87;6729183;26;34320;-64
2021/12/20 07:54:42;;;;;;;3.92;1.67;;;;;;;1.28;81.39;100521.87;6729090;26;34157;-64
2021/12/20 07:57:44;;;;;;;6.35;2.05;;;;;;;1.29;81.47;100539.22;6728538;26;33172;-65
2021/12/20 08:00:47;;;;;;;3.87;1.83;;;;;;;1.32;81.65;100531.16;6728583;26;34453;-65
2021/12/20 08:03:50;;;;;;;6.85;2.00;;;;;;;1.28;82.17;100529.72;6749342;26;34231;-65
2021/12/20 08:06:53;;;;;;;3.87;1.98;;;;;;;1.29;82.04;100526.16;6749106;26;34268;-65
2021/12/20 08:09:55;;;;;;;4.85;2.10;;;;;;;1.38;81.48;100514.22;6748615;26;34990;-64
2021/12/20 08:12:58;;;;;;;4.53;1.90;;;;;;;1.32;82.18;100515.47;6729170;26;34157;-65
2021/12/20 08:16:00;;;;;;;6.53;2.17;;;;;;;1.37;81.45;100529.06;6748447;26;34968;-65
2021/12/20 08:19:03;;;;;;;6.30;1.80;;;;;;;1.39;81.39;100534.22;6749170;26;35029;-65
2021/12/20 08:22:06;;;;;;;4.32;1.95;;;;;;;1.52;80.45;100527.19;6748939;26;35555;-65
2021/12/20 08:25:09;;;;;;;4.72;2.08;;;;;;;1.60;80.17;100517.00;6748955;26;34182;-65
2021/12/20 08:28:12;;;;;;;4.82;2.10;;;;;;;1.51;80.54;100508.03;6748975;26;34118;-65
2021/12/20 08:31:15;;;;;;;4.50;1.90;;;;;;;1.60;79.46;100527.47;6748959;26;34268;-65
2021/12/20 08:34:18;;;;;;;2.85;1.42;;;;;;;1.68;78.32;100506.88;6749144;26;34905;-67
2021/12/20 08:37:21;;;;;;;2.67;1.40;;;;;;;1.75;76.68;100513.31;6749173;26;34649;-66
2021/12/20 08:40:24;;;;;;;3.22;1.62;;;;;;;1.77;76.01;100511.44;6748818;26;34224;-65
2021/12/20 08:43:27;;;;;;;5.60;1.40;;;;;;;1.77;75.70;100526.31;6748701;26;34298;-65
2021/12/20 08:46:29;;;;;;;5.78;1.50;;;;;;;1.85;75.29;100531.81;6748816;26;34910;-65
2021/12/20 08:49:32;;;;;;;9.38;2.35;;;;;;;1.98;74.25;100551.78;6748960;26;34178;-65
2021/12/20 08:52:35;;;;;;;4.15;1.52;;;;;;;1.99;74.03;100571.75;6748875;26;34248;-65
2021/12/20 08:55:38;;;;;;;3.75;1.50;;;;;;;2.03;73.93;100575.81;6749010;26;34387;-65
2021/12/20 08:58:40;;;;;;;3.90;1.67;;;;;;;2.16;74.34;100584.50;6748962;26;34235;-65
2021/12/20 09:01:43;;;;;;;5.60;1.77;;;;;;;2.10;74.60;100581.47;6748881;26;34301;-65
2021/12/20 09:04:46;;;;;;;6.32;1.60;;;;;;;2.08;75.22;100576.34;6748854;26;34227;-65
2021/12/20 09:07:48;;;;;;;3.25;1.48;;;;;;;2.04;75.88;100579.28;6748970;26;34354;-65
2021/12/20 09:10:51;;;;;;;3.25;1.60;;;;;;;2.10;75.52;100563.16;6728937;26;34974;-64
2021/12/20 09:13:54;;;;;;;1.83;1.12;;;;;;;2.08;75.31;100557.22;6748544;26;34315;-65
2021/12/20 09:16:57;;;;;;;4.18;1.35;;;;;;;2.08;75.17;100560.62;6748454;26;34295;-65
2021/12/20 09:19:59;;;;;;;2.92;1.60;;;;;;;2.02;75.42;100553.25;6748216;26;34953;-65
2021/12/20 09:23:07;;;;;;;4.10;1.55;;;;;;;2.07;75.46;100545.06;6748556;26;34841;-65
2021/12/20 09:26:10;;;;;;;4.10;1.25;;;;;;;2.11;74.90;100542.13;6748316;26;34318;-65
2021/12/20 09:29:13;;;;;;;3.45;1.50;;;;;;;2.15;75.19;100537.47;6748397;26;34303;-65
2021/12/20 09:32:16;;;;;;;3.97;1.45;;;;;;;2.17;75.33;100520.75;6748501;26;34377;-65
2021/12/20 09:35:20;;;;;;;4.72;1.60;;;;;;;2.27;74.84;100531.38;6732632;26;34358;-64
2021/12/20 09:38:23;;;;;;;3.30;1.02;;;;;;;2.26;73.52;100514.00;6747377;26;34228;-64
2021/12/20 09:44:44;;;;;;;5.40;1.60;;;;;;;2.39;73.75;100521.78;6748183;26;34235;-65
2021/12/20 09:47:48;;;;;;;4.57;2.10;;;;;;;2.35;74.06;100520.34;6728690;26;34891;-64
2021/12/20 09:50:51;;;;;;;4.43;1.08;;;;;;;2.37;73.84;100508.78;6748555;26;34264;-68
2021/12/20 09:53:57;;;;;;;4.28;1.45;;;;;;;2.43;72.82;100510.12;6748517;26;35438;-66
2021/12/20 09:57:02;;;;;;;4.40;1.23;;;;;;;2.44;72.58;100524.91;6747987;26;34361;-67
2021/12/20 10:00:08;;;;;;;2.83;1.08;;;;;;;2.43;72.76;100489.19;6748942;26;34802;-66
2021/12/20 10:03:19;;;;;;;2.53;1.27;;;;;;;2.41;72.88;100515.50;6748508;26;34318;-67
2021/12/20 10:06:23;;;;;;;2.62;1.23;;;;;;;2.51;72.73;100499.94;6748008;26;34320;-67
2021/12/20 10:09:28;;;;;;;5.45;1.52;;;;;;;2.50;72.37;100493.03;6748640;26;34240;-64
2021/12/20 10:12:31;;;;;;;3.47;1.00;;;;;;;2.58;72.42;100522.09;6748891;26;34985;-65
2021/12/20 10:15:36;;;;;;;2.33;1.20;;;;;;;2.60;71.94;100525.44;6748252;26;34998;-65
2021/12/20 10:18:40;;;;;;;5.37;0.90;;;;;;;2.72;71.52;100547.25;6748170;26;34889;-64
2021/12/20 10:21:45;;;;;;;4.20;1.17;;;;;;;2.79;69.47;100536.22;6748398;26;34848;-64
2021/12/20 10:24:48;;;;;;;2.15;0.93;;;;;;;2.85;69.46;100522.69;6747704;26;34497;-64
2021/12/20 10:27:51;;;;;;;3.40;1.10;;;;;;;2.77;70.54;100516.31;6748132;26;34328;-65
2021/12/20 10:31:01;;;;;;;5.72;1.15;;;;;;;2.86;70.76;100515.63;6748271;26;34311;-64
2021/12/20 10:34:04;;;;;;;3.33;1.08;;;;;;;2.85;70.44;100506.13;6748678;26;34652;-66
2021/12/20 10:37:38;;;;;;;3.97;1.17;;;;;;;2.79;70.30;100530.16;6749927;26;34263;-65
2021/12/20 10:41:33;;;;;;;19.10;1.58;;;;;;;2.77;70.26;100527.63;6730869;26;34329;-65
2021/12/20 10:44:38;;;;;;;3.90;1.12;;;;;;;2.78;70.55;100541.56;6748356;26;34940;-64
2021/12/20 10:47:43;;;;;;;5.55;1.10;;;;;;;2.89;69.69;100539.00;6748518;26;34386;-65
2021/12/20 10:50:46;;;;;;;2.42;0.90;;;;;;;2.88;69.49;100539.94;6748174;26;34903;-64
2021/12/20 10:53:57;;;;;;;6.47;1.20;;;;;;;2.91;69.49;100563.28;6747983;26;34368;-64
2021/12/20 10:57:05;;;;;;;2.55;1.23;;;;;;;2.88;69.22;100553.03;6729083;26;35104;-64
2021/12/20 11:00:17;;;;;;;2.70;1.10;;;;;;;2.89;69.38;100558.19;6747920;26;34402;-65
2021/12/20 11:03:28;;;;;;;2.75;1.23;;;;;;;3.00;70.13;100550.31;6748333;26;35443;-65
2021/12/20 11:09:43;;;;;;;1.70;0.93;;;;;;;3.02;70.05;100532.72;6728914;26;34883;-64
2021/12/20 11:12:45;;;;;;;2.03;1.33;;;;;;;3.18;70.54;100536.81;6748123;26;34874;-65
2021/12/20 11:15:50;;;;;;;4.00;1.42;;;;;;;3.09;70.51;100534.88;6748108;26;34369;-66
2021/12/20 11:19:17;;;;;;;2.90;1.35;;;;;;;3.08;71.46;100541.06;6748642;26;34302;-65
2021/12/20 11:22:25;;;;;;;3.12;1.37;;;;;;;3.05;71.38;100532.47;6729088;26;34298;-65
2021/12/20 11:25:28;;;;;;;3.78;1.30;;;;;;;3.15;70.89;100524.75;6748819;26;34907;-65
2021/12/20 11:28:31;;;;;;;4.07;1.30;;;;;;;3.10;71.56;100534.75;6749197;26;34332;-64
2021/12/20 11:31:33;;;;;;;3.58;1.45;;;;;;;3.19;70.34;100531.44;6749653;26;34503;-64
2021/12/20 11:34:38;;;;;;;3.28;1.30;;;;;;;3.21;70.57;100540.00;6746583;26;35596;-64
2021/12/20 11:37:41;;;;;;;2.72;1.17;;;;;;;3.18;70.84;100544.66;6714208;26;34330;-66
2021/12/20 11:40:44;;;;;;;2.33;0.90;;;;;;;3.24;69.61;100542.41;6749069;26;34958;-64
2021/12/20 11:43:47;;;;;;;1.80;0.88;;;;;;;3.25;67.56;100524.87;6749128;26;34243;-64
2021/12/20 11:47:09;;;;;;;3.08;1.20;;;;;;;3.20;68.03;100537.50;6749104;26;34467;-67
2021/12/20 11:50:14;;;;;;;7.37;1.05;;;;;;;3.20;66.85;100542.75;6749251;26;34924;-64
2021/12/20 11:53:19;;;;;;;2.40;1.20;;;;;;;3.28;67.21;100543.00;6729741;26;34284;-65
2021/12/20 11:56:36;;;;;;;1.98;1.50;;;;;;;3.40;68.56;100553.38;6749189;26;34126;-65
2021/12/20 11:59:50;;;;;;;1.90;0.98;;;;;;;3.21;68.68;100539.19;6748889;26;34330;-66
2021/12/20 12:03:05;;;;;;;2.08;0.98;;;;;;;3.33;68.88;100561.84;6749258;26;34946;-64
2021/12/20 12:06:12;;;;;;;1.83;1.15;;;;;;;3.46;69.02;100563.41;6749182;26;34222;-64
2021/12/20 12:09:17;;;;;;;4.45;1.20;;;;;;;3.67;68.04;100562.72;6748958;26;34877;-64
2021/12/20 12:12:34;;;;;;;1.45;1.00;;;;;;;3.95;65.66;100575.34;6749076;26;34290;-66
2021/12/20 12:15:52;;;;;;;2.75;0.85;;;;;;;4.02;65.42;100557.31;6711893;26;34251;-65
2021/12/20 12:18:58;;;;;;;2.20;1.00;;;;;;;4.09;63.95;100561.97;6748610;26;35582;-66
2021/12/20 12:22:01;;;;;;;1.85;0.88;;;;;;;3.94;64.38;100556.13;6748934;26;34470;-65
2021/12/20 12:25:08;;;;;;;1.92;0.82;;;;;;;4.02;64.36;100567.81;6749220;26;34703;-65
2021/12/20 12:28:12;;;;;;;1.30;0.70;;;;;;;4.01;63.12;100571.41;6748603;26;34928;-64
2021/12/20 12:31:15;;;;;;;1.40;0.70;;;;;;;4.13;62.57;100566.00;6748753;26;34443;-66
2021/12/20 12:34:18;;;;;;;2.17;0.90;;;;;;;4.11;62.22;100577.59;6749220;26;34855;-66
2021/12/20 12:37:32;;;;;;;2.53;0.62;;;;;;;4.10;62.11;100587.25;6748948;26;34399;-65
2021/12/20 12:40:35;;;;;;;3.40;0.90;;;;;;;4.13;62.26;100594.03;6748448;26;34314;-65
2021/12/20 12:43:52;;;;;;;2.15;0.77;;;;;;;4.22;62.16;100588.91;6748753;26;34724;-64
2021/12/20 12:46:55;;;;;;;1.90;0.80;;;;;;;4.11;61.95;100595.97;6748925;26;34903;-64
2021/12/20 12:49:59;;;;;;;1.48;0.80;;;;;;;4.14;62.01;100587.84;6748737;26;34961;-64
2021/12/20 12:53:02;;;;;;;1.87;0.70;;;;;;;4.25;62.33;100593.09;6748912;26;34923;-63
2021/12/20 12:56:41;;;;;;;3.15;1.08;;;;;;;4.14;61.11;100593.09;6748631;26;34344;-65
2021/12/20 12:59:48;;;;;;;1.42;0.62;;;;;;;4.15;61.40;100598.22;6606155;27;35400;-65
2021/12/20 13:02:54;;;;;;;2.28;0.75;;;;;;;4.12;61.81;100605.50;6606020;27;34946;-65
2021/12/20 13:05:57;;;;;;;5.07;1.00;;;;;;;4.20;60.60;100600.50;6606139;27;34858;-65
2021/12/20 13:09:00;;;;;;;2.37;1.15;;;;;;;4.07;60.93;100612.91;6606041;27;34272;-65
2021/12/20 13:12:08;;;;;;;3.60;1.00;;;;;;;4.07;61.96;100615.53;6606480;27;34436;-65
2021/12/20 13:15:39;;;;;;;3.83;1.48;;;;;;;3.90;62.90;100624.72;6605909;27;34138;-65
2021/12/20 13:18:42;;;;;;;3.47;0.90;;;;;;;3.83;63.64;100626.16;6606643;27;34806;-65
2021/12/20 13:21:59;;;;;;;7.95;0.85;;;;;;;3.60;63.10;100634.97;6605867;27;34318;-66
2021/12/20 13:25:03;;;;;;;1.92;0.70;;;;;;;3.57;62.69;100630.78;6606490;27;35405;-65
2021/12/20 13:28:10;;;;;;;1.10;0.80;;;;;;;3.50;63.34;100630.41;6606191;27;34640;-65
2021/12/20 13:31:15;;;;;;;2.78;0.80;;;;;;;3.57;63.14;100635.19;6606188;27;34111;-64
2021/12/20 13:34:21;;;;;;;2.35;0.60;;;;;;;3.61;62.90;100634.00;6716694;26;34379;-66
2021/12/20 13:37:31;;;;;;;2.03;0.57;;;;;;;3.46;63.51;100634.22;6748749;26;34961;-66
2021/12/20 13:40:52;;;;;;;1.77;0.98;;;;;;;3.41;63.63;100648.62;6748643;26;34270;-65
2021/12/20 13:43:58;;;;;;;;;;;;;;;3.28;64.36;100640.87;6749400;26;34523;-65
2021/12/20 13:47:05;;;;;;;3.30;0.90;;;;;;;3.36;64.16;100643.72;6748886;26;34951;-64
2021/12/20 13:50:17;;;;;;;2.58;0.85;;;;;;;3.21;64.81;100642.25;6729063;26;34175;-64
2021/12/20 13:53:33;;;;;;;2.37;0.70;;;;;;;3.22;65.53;100657.03;6748476;26;34985;-65
2021/12/20 13:56:36;;;;;;;2.75;0.85;;;;;;;3.18;65.56;100660.00;6748765;26;34271;-65
2021/12/20 13:59:50;;;;;;;1.90;1.00;;;;;;;3.13;65.70;100664.75;6748748;26;34857;-64
2021/12/20 14:02:52;;;;;;;8.85;1.15;;;;;;;3.11;66.58;100658.78;6748569;26;34916;-64
2021/12/20 14:05:57;;;;;;;2.20;0.80;;;;;;;3.11;66.59;100667.47;6748638;26;34226;-65
2021/12/20 14:09:21;;;;;;;2.37;1.08;;;;;;;3.04;67.42;100671.50;6748676;26;34275;-65
2021/12/20 14:12:33;;;;;;;3.75;1.00;;;;;;;2.97;68.29;100678.13;6748457;26;34708;-65
2021/12/20 14:15:38;;;;;;;4.80;0.88;;;;;;;3.09;67.80;100672.00;6748646;26;34876;-64
2021/12/20 14:18:40;;;;;;;1.25;0.77;;;;;;;2.99;67.99;100671.84;6748379;26;34931;-64
2021/12/20 14:21:43;;;;;;;4.12;1.10;;;;;;;2.88;68.24;100674.41;6748736;26;34290;-64
2021/12/20 14:24:47;;;;;;;2.00;0.90;;;;;;;2.82;68.26;100663.53;6748500;26;34462;-64
2021/12/20 14:28:05;;;;;;;3.33;1.20;;;;;;;2.82;67.79;100681.88;6748026;26;35005;-65
2021/12/20 14:31:12;;;;;;;2.03;1.00;;;;;;;2.82;67.55;100666.16;6728716;26;34915;-64
2021/12/20 14:34:15;;;;;;;2.10;1.02;;;;;;;2.78;67.61;100676.03;6748507;26;34620;-65
2021/12/20 14:37:20;;;;;;;9.68;1.30;;;;;;;2.73;67.37;100665.03;6748401;26;34434;-66
2021/12/20 14:40:43;;;;;;;1.30;0.80;;;;;;;2.75;67.34;100668.41;6748307;26;34205;-65
2021/12/20 14:43:47;;;;;;;1.48;1.00;;;;;;;2.66;68.07;100673.47;6691507;26;34186;-65
2021/12/20 14:46:59;;;;;;;1.75;1.00;;;;;;;2.47;69.30;100659.03;6691253;26;34542;-65